createdAt,value
2019-02-02T00:01:00.581Z,42.00
2019-02-02T00:06:42.607Z,45.00
2019-02-02T00:21:27.155Z,41.75
2019-02-02T00:23:57.493Z,35.33
2019-02-02T00:26:28.411Z,41.67
2019-02-02T00:29:17.843Z,35.50
2019-02-02T00:32:07.598Z,42.00
2019-02-02T00:34:38.406Z,38.00
2019-02-02T00:37:09.411Z,35.33
2019-02-02T00:42:53.243Z,47.50
2019-02-02T00:45:35.946Z,35.33
2019-02-02T00:48:25.943Z,37.33
2019-02-02T00:51:19.003Z,45.25
2019-02-02T00:56:58.326Z,40.50
2019-02-02T00:59:28.264Z,42.00
2019-02-02T01:01:59.040Z,43.50
2019-02-02T01:04:48.891Z,37.50
2019-02-02T01:07:22.331Z,38.00
2019-02-02T01:10:32.788Z,35.25
2019-02-02T01:18:52.793Z,46.00
2019-02-02T01:24:32.205Z,37.00
2019-02-02T01:30:36.219Z,41.00
2019-02-02T01:33:25.990Z,40.50
2019-02-02T01:36:15.945Z,36.67
2019-02-02T01:39:17.517Z,48.50
2019-02-02T01:41:48.413Z,43.67
2019-02-02T01:44:19.253Z,40.33
2019-02-02T01:47:09.199Z,36.00
2019-02-02T01:49:59.118Z,44.50
2019-02-02T01:52:49.003Z,40.67
2019-02-02T01:55:38.836Z,43.33
2019-02-02T01:58:16.429Z,38.67
2019-02-02T02:07:33.112Z,38.50
2019-02-02T02:10:05.539Z,47.50
2019-02-02T02:12:55.095Z,43.50
2019-02-02T02:15:47.786Z,41.33
2019-02-02T02:18:37.511Z,40.00
2019-02-02T02:31:04.524Z,47.75
2019-02-02T02:33:54.201Z,40.00
2019-02-02T02:36:46.693Z,46.25
2019-02-02T02:45:49.212Z,36.67
2019-02-02T02:48:39.088Z,46.50
2019-02-02T02:51:10.095Z,37.00
2019-02-02T02:53:40.857Z,40.00
2019-02-02T02:56:30.640Z,36.50
2019-02-02T02:59:01.373Z,35.50
2019-02-02T03:01:33.167Z,30.67
2019-02-02T03:04:23.142Z,34.67
2019-02-02T03:06:54.032Z,35.33
2019-02-02T03:09:24.048Z,31.33
2019-02-02T03:12:13.938Z,37.67
2019-02-02T03:14:44.045Z,38.67
2019-02-02T03:17:32.977Z,28.67
2019-02-02T03:20:06.242Z,36.00
2019-02-02T03:22:36.346Z,37.67
2019-02-02T03:25:25.723Z,31.00
2019-02-02T03:27:55.692Z,36.33
2019-02-02T03:30:26.579Z,42.00
2019-02-02T03:33:17.437Z,42.75
2019-02-02T03:36:07.454Z,44.67
2019-02-02T03:41:52.499Z,34.67
2019-02-02T03:44:30.125Z,34.00
2019-02-02T03:47:00.160Z,35.33
2019-02-02T03:49:31.058Z,38.50
2019-02-02T03:52:21.027Z,40.67
2019-02-02T03:54:51.771Z,44.00
2019-02-02T03:57:23.442Z,50.00
2019-02-02T04:00:33.254Z,48.00
2019-02-02T04:03:22.246Z,42.00
2019-02-02T04:06:12.123Z,41.00
2019-02-02T04:08:55.195Z,38.00
2019-02-02T04:11:33.813Z,41.33
2019-02-02T04:14:14.988Z,41.00
2019-02-02T04:19:26.496Z,38.00
2019-02-02T04:22:16.271Z,41.50
2019-02-02T04:25:05.513Z,32.00
2019-02-02T04:27:55.472Z,38.00
2019-02-02T04:30:27.293Z,35.00
2019-02-02T04:33:17.181Z,42.00
2019-02-02T04:35:47.300Z,36.67
2019-02-02T04:38:18.155Z,37.67
2019-02-02T04:41:08.153Z,40.00
2019-02-02T04:46:38.754Z,37.00
2019-02-02T04:49:09.505Z,46.00
2019-02-02T04:51:40.383Z,43.33
2019-02-02T04:54:11.115Z,39.50
2019-02-02T04:56:41.260Z,35.67
2019-02-02T04:59:31.924Z,49.50
2019-02-02T05:02:05.025Z,43.33
2019-02-02T05:04:38.277Z,41.00
2019-02-02T05:07:29.022Z,48.00
2019-02-02T05:09:59.026Z,34.33
2019-02-02T05:12:59.266Z,37.00
2019-02-02T05:15:03.566Z,43.67
2019-02-02T05:17:34.325Z,43.50
2019-02-02T05:20:49.498Z,44.00
2019-02-02T05:23:19.625Z,45.00
2019-02-02T05:25:51.347Z,47.75
2019-02-02T05:31:23.999Z,40.00
2019-02-02T05:33:54.041Z,35.67
2019-02-02T05:36:25.230Z,43.50
2019-02-02T05:38:55.282Z,36.67
2019-02-02T05:41:45.067Z,40.00
2019-02-02T05:44:15.946Z,40.33
2019-02-02T05:46:46.043Z,39.00
2019-02-02T05:49:27.797Z,34.00
2019-02-02T05:51:49.249Z,46.00
2019-02-02T05:54:19.286Z,43.33
2019-02-02T05:56:49.998Z,41.25
2019-02-02T05:59:52.248Z,44.00
2019-02-02T06:02:14.415Z,51.25
2019-02-02T06:05:04.417Z,42.00
2019-02-02T06:07:53.486Z,32.00
2019-02-02T06:10:43.286Z,42.50
2019-02-02T06:13:47.138Z,39.00
2019-02-02T06:16:44.962Z,35.33
2019-02-02T06:19:15.932Z,44.67
2019-02-02T06:22:28.441Z,38.25
2019-02-02T06:25:21.057Z,40.00
2019-02-02T06:28:10.894Z,41.00
2019-02-02T06:30:49.268Z,40.67
2019-02-02T06:33:20.142Z,36.67
2019-02-02T06:36:09.916Z,38.50
2019-02-02T06:41:51.580Z,42.50
2019-02-02T06:44:42.173Z,45.00
2019-02-02T06:47:32.300Z,47.00
2019-02-02T06:50:22.232Z,38.00
2019-02-02T06:53:12.028Z,42.00
2019-02-02T06:55:42.098Z,37.67
2019-02-02T06:58:13.919Z,41.25
2019-02-02T07:01:03.854Z,34.67
2019-02-02T07:03:37.292Z,47.00
2019-02-02T07:06:27.248Z,40.67
2019-02-02T07:09:36.113Z,45.50
2019-02-02T07:12:25.369Z,37.00
2019-02-02T07:15:15.202Z,45.00
2019-02-02T07:18:04.210Z,39.00
2019-02-02T07:20:34.964Z,43.50
2019-02-02T07:25:49.136Z,47.50
2019-02-02T07:28:39.404Z,45.00
2019-02-02T07:31:11.124Z,45.50
2019-02-02T07:33:42.308Z,47.00
2019-02-02T07:36:33.001Z,54.00
2019-02-02T07:42:35.091Z,44.25
2019-02-02T07:48:11.740Z,48.67
2019-02-02T07:50:45.850Z,49.25
2019-02-02T07:53:35.422Z,48.50
2019-02-02T07:56:25.348Z,42.67
2019-02-02T08:04:46.327Z,42.00
2019-02-02T08:07:36.226Z,40.50
2019-02-02T08:10:09.510Z,46.25
2019-02-02T08:13:21.278Z,51.00
2019-02-02T08:15:52.050Z,59.50
2019-02-02T08:19:05.067Z,52.00
2019-02-02T08:21:46.515Z,42.67
2019-02-02T08:24:18.498Z,50.25
2019-02-02T08:29:43.517Z,66.75
2019-02-02T08:32:14.418Z,54.50
2019-02-02T08:34:45.298Z,51.33
2019-02-02T08:37:56.486Z,64.25
2019-02-02T08:40:27.286Z,55.75
2019-02-02T08:45:40.744Z,55.00
2019-02-02T08:48:12.459Z,57.75
2019-02-02T08:51:02.363Z,59.00
2019-02-02T08:53:34.161Z,59.00
2019-02-02T08:56:57.364Z,47.33
2019-02-02T08:59:15.633Z,53.50
2019-02-02T09:01:48.182Z,56.25
2019-02-02T09:04:38.069Z,59.00
2019-02-02T09:10:22.324Z,57.50
2019-02-02T09:13:13.025Z,53.50
2019-02-02T09:16:03.954Z,56.25
2019-02-02T09:18:34.699Z,40.75
2019-02-02T09:24:25.797Z,47.25
2019-02-02T09:27:18.533Z,47.25
2019-02-02T09:30:08.388Z,48.50
2019-02-02T09:33:17.003Z,59.00
2019-02-02T09:35:50.134Z,52.50
2019-02-02T09:38:20.450Z,52.33
2019-02-02T09:40:52.189Z,53.75
2019-02-02T09:43:25.795Z,56.00
2019-02-02T09:45:57.511Z,59.50
2019-02-02T09:48:28.248Z,61.00
2019-02-02T09:51:38.796Z,52.00
2019-02-02T09:54:09.634Z,59.50
2019-02-02T09:57:00.409Z,63.00
2019-02-02T09:59:32.285Z,58.25
2019-02-02T10:02:34.064Z,62.00
2019-02-02T10:05:13.623Z,63.00
2019-02-02T10:08:03.576Z,59.00
2019-02-02T10:11:07.777Z,57.50
2019-02-02T10:13:56.758Z,60.00
2019-02-02T10:16:17.395Z,55.00
2019-02-02T10:19:26.295Z,72.00
2019-02-02T10:21:57.070Z,73.00
2019-02-02T10:27:33.039Z,62.00
2019-02-02T10:30:32.646Z,62.00
2019-02-02T10:50:39.602Z,58.50
2019-02-02T10:53:29.525Z,55.50
2019-02-02T10:56:19.440Z,60.75
2019-02-02T10:59:29.149Z,56.50
2019-02-02T11:02:18.930Z,66.50
2019-02-02T11:04:50.007Z,58.25
2019-02-02T11:10:51.651Z,62.50
2019-02-02T11:13:41.465Z,61.00
2019-02-02T11:19:23.833Z,55.00
2019-02-02T11:22:46.375Z,67.50
2019-02-02T11:25:27.807Z,57.00
2019-02-02T11:34:29.796Z,56.00
2019-02-02T11:37:23.778Z,68.50
2019-02-02T11:40:26.950Z,65.50
2019-02-02T11:43:06.999Z,51.50
2019-02-02T11:48:52.956Z,56.75
2019-02-02T11:51:25.678Z,55.50
2019-02-02T11:57:23.997Z,58.67
2019-02-02T12:00:33.736Z,51.00
2019-02-02T12:03:04.651Z,54.50
2019-02-02T12:06:14.866Z,56.00
2019-02-02T12:14:27.091Z,58.50
2019-02-02T12:17:37.175Z,61.00
2019-02-02T12:26:24.137Z,57.00
2019-02-02T12:29:05.048Z,54.00
2019-02-02T12:34:47.754Z,62.00
2019-02-02T12:37:39.987Z,53.50
2019-02-02T12:46:20.493Z,63.00
2019-02-02T12:52:13.582Z,56.50
2019-02-02T12:55:03.467Z,58.00
2019-02-02T12:57:53.519Z,60.00
2019-02-02T13:00:24.402Z,58.00
2019-02-02T13:03:14.586Z,66.50
2019-02-02T13:06:01.636Z,74.00
2019-02-02T13:08:52.387Z,68.00
2019-02-02T13:11:42.170Z,57.50
2019-02-02T13:14:37.732Z,55.50
2019-02-02T13:20:13.538Z,47.75
2019-02-02T13:22:44.327Z,51.00
2019-02-02T13:25:35.671Z,58.00
2019-02-02T13:28:09.172Z,48.33
2019-02-02T13:31:04.776Z,52.75
2019-02-02T13:37:33.180Z,45.00
2019-02-02T13:40:28.896Z,47.25
2019-02-02T13:45:54.193Z,48.00
2019-02-02T13:48:33.780Z,45.67
2019-02-02T13:51:06.163Z,46.33
2019-02-02T13:53:37.321Z,61.50
2019-02-02T13:56:46.242Z,57.25
2019-02-02T14:00:14.575Z,70.25
2019-02-02T14:02:32.577Z,56.75
2019-02-02T14:05:03.536Z,60.00
2019-02-02T14:07:34.319Z,61.25
2019-02-02T14:10:06.784Z,45.25
2019-02-02T14:15:41.614Z,47.00
2019-02-02T14:18:13.397Z,47.75
2019-02-02T14:20:45.103Z,53.00
2019-02-02T14:23:35.836Z,58.00
2019-02-02T14:29:07.143Z,65.00
2019-02-02T14:34:47.454Z,63.75
2019-02-02T14:40:29.448Z,56.25
2019-02-02T14:43:36.545Z,52.00
2019-02-02T14:46:26.471Z,53.00
2019-02-02T14:49:31.051Z,58.50
2019-02-02T14:55:35.729Z,56.50
2019-02-02T14:58:29.129Z,52.75
2019-02-02T15:00:59.997Z,47.00
2019-02-02T15:03:30.853Z,46.00
2019-02-02T15:06:21.593Z,51.25
2019-02-02T15:09:13.334Z,51.33
2019-02-02T15:22:58.497Z,56.25
2019-02-02T15:25:07.354Z,63.00
2019-02-02T15:27:56.109Z,50.00
2019-02-02T15:31:05.848Z,45.50
2019-02-02T15:33:46.968Z,52.00
2019-02-02T15:36:37.765Z,62.25
2019-02-02T15:42:10.462Z,58.50
2019-02-02T15:44:41.356Z,53.75
2019-02-02T15:47:12.293Z,52.33
2019-02-02T15:50:02.238Z,51.75
2019-02-02T15:55:41.533Z,53.00
2019-02-02T15:58:25.590Z,64.00
2019-02-02T16:09:57.182Z,57.00
2019-02-02T16:12:46.745Z,64.50
2019-02-02T16:18:26.232Z,53.25
2019-02-02T16:23:57.181Z,61.50
2019-02-02T16:29:19.881Z,54.00
2019-02-02T16:31:59.720Z,52.75
2019-02-02T16:34:49.586Z,54.00
2019-02-02T16:38:22.390Z,53.33
2019-02-02T16:43:21.297Z,54.25
2019-02-02T16:46:30.162Z,63.00
2019-02-02T16:49:01.089Z,50.00
2019-02-02T16:51:32.747Z,56.00
2019-02-02T16:54:03.644Z,52.75
2019-02-02T16:56:35.397Z,58.75
2019-02-02T17:02:15.122Z,48.75
2019-02-02T17:05:10.811Z,55.50
2019-02-02T17:08:01.303Z,50.50
2019-02-02T17:13:34.647Z,50.00
2019-02-02T17:16:05.834Z,56.00
2019-02-02T17:22:06.183Z,58.75
2019-02-02T17:24:57.432Z,48.00
2019-02-02T17:27:30.296Z,46.33
2019-02-02T17:30:01.203Z,55.75
2019-02-02T17:35:16.702Z,53.00
2019-02-02T17:38:29.712Z,44.50
2019-02-02T17:44:26.812Z,61.50
2019-02-02T17:47:19.112Z,56.75
2019-02-02T17:56:56.470Z,52.00
2019-02-02T17:59:17.852Z,47.67
2019-02-02T18:05:13.031Z,50.00
2019-02-02T18:07:44.695Z,45.50
2019-02-02T18:10:35.163Z,50.25
2019-02-02T18:13:24.499Z,53.00
2019-02-02T18:16:34.399Z,49.50
2019-02-02T18:22:17.059Z,51.50
2019-02-02T18:24:48.783Z,51.00
2019-02-02T18:27:33.858Z,46.00
2019-02-02T18:29:55.247Z,52.00
2019-02-02T18:35:39.863Z,43.50
2019-02-02T18:38:12.313Z,47.00
2019-02-02T18:41:24.416Z,50.75
2019-02-02T18:47:27.825Z,46.67
2019-02-02T18:53:01.065Z,38.33
2019-02-02T18:56:12.901Z,35.67
2019-02-02T18:59:47.173Z,33.67
2019-02-02T19:01:56.324Z,35.33
2019-02-02T19:07:56.066Z,38.00
2019-02-02T19:11:05.130Z,36.00
2019-02-02T19:13:41.827Z,36.67
2019-02-02T19:16:12.643Z,45.25
2019-02-02T19:19:16.803Z,40.00
2019-02-02T19:24:56.017Z,38.00
2019-02-02T19:30:43.590Z,37.00
2019-02-02T19:33:15.394Z,46.50
2019-02-02T19:35:47.484Z,44.25
2019-02-02T19:38:39.121Z,42.75
2019-02-02T19:44:38.318Z,44.50
2019-02-02T19:47:16.416Z,43.25
2019-02-02T19:50:27.682Z,33.33
2019-02-02T19:53:38.090Z,39.25
2019-02-02T19:56:29.336Z,46.75
2019-02-02T19:59:20.091Z,50.75
2019-02-02T20:12:09.125Z,41.25
2019-02-02T20:17:41.832Z,33.00
2019-02-02T20:20:58.407Z,37.67
2019-02-02T20:26:47.075Z,43.75
2019-02-02T20:29:39.560Z,38.00
2019-02-02T20:32:39.908Z,38.00
2019-02-02T20:35:11.278Z,38.50
2019-02-02T20:40:34.076Z,34.75
2019-02-02T20:52:55.987Z,23.00
2019-02-02T20:55:31.786Z,24.33
2019-02-02T20:58:22.988Z,26.33
2019-02-02T21:03:58.476Z,27.00
2019-02-02T21:06:48.592Z,29.00
2019-02-02T21:09:18.751Z,29.00
2019-02-02T21:17:31.362Z,34.75
2019-02-02T21:20:22.615Z,31.00
2019-02-02T21:26:08.789Z,32.67
2019-02-02T21:31:59.474Z,27.67
2019-02-02T21:34:50.827Z,20.33
2019-02-02T21:37:20.813Z,24.67
2019-02-02T21:55:15.753Z,22.67
2019-02-02T22:01:23.468Z,37.00
2019-02-02T22:04:23.130Z,27.67
2019-02-02T22:07:15.533Z,29.00
2019-02-02T22:10:06.445Z,30.00
2019-02-02T22:13:16.782Z,33.33
2019-02-02T22:16:09.194Z,39.00
2019-02-02T22:19:00.323Z,30.00
2019-02-02T22:24:52.264Z,33.00
2019-02-02T22:27:42.236Z,30.00
2019-02-02T22:30:35.321Z,24.00
2019-02-02T22:39:55.136Z,30.00
2019-02-02T22:45:37.337Z,30.00
2019-02-02T22:48:47.683Z,29.67
2019-02-02T22:51:55.237Z,25.67
2019-02-02T22:57:24.854Z,31.00
2019-02-02T23:06:11.831Z,28.67
2019-02-02T23:09:05.181Z,25.33
2019-02-02T23:12:13.297Z,23.67
2019-02-02T23:17:53.910Z,28.67
2019-02-02T23:20:49.318Z,22.33
2019-02-02T23:23:38.470Z,23.00
2019-02-02T23:26:27.496Z,21.00
2019-02-02T23:29:16.501Z,19.67
2019-02-02T23:32:05.991Z,19.00
2019-02-02T23:38:21.733Z,22.33
2019-02-02T23:40:54.746Z,20.00
2019-02-02T23:43:27.383Z,18.33
2019-02-02T23:45:57.428Z,22.67
2019-02-02T23:51:41.380Z,19.33
2019-02-02T23:54:30.550Z,23.33
